createdAt,value
2019-06-20T00:00:38.630Z,20.90
2019-06-20T00:03:06.371Z,20.80
2019-06-20T00:05:34.442Z,20.80
2019-06-20T00:08:02.178Z,20.80
2019-06-20T00:10:29.906Z,20.80
2019-06-20T00:13:00.833Z,20.80
2019-06-20T00:15:27.409Z,20.80
2019-06-20T00:17:55.108Z,20.80
2019-06-20T00:20:22.834Z,20.80
2019-06-20T00:22:50.552Z,20.80
2019-06-20T00:25:18.667Z,20.80
2019-06-20T00:27:46.389Z,20.80
2019-06-20T00:30:14.808Z,20.80
2019-06-20T00:32:45.631Z,20.80
2019-06-20T00:35:13.651Z,20.80
2019-06-20T00:37:41.400Z,20.80
2019-06-20T00:40:09.120Z,20.80
2019-06-20T00:42:36.846Z,20.80
2019-06-20T00:45:05.150Z,20.80
2019-06-20T00:47:32.886Z,20.80
2019-06-20T00:50:00.928Z,20.80
2019-06-20T00:52:28.656Z,20.80
2019-06-20T00:54:56.383Z,20.80
2019-06-20T00:57:24.108Z,20.80
2019-06-20T00:59:51.851Z,20.80
2019-06-20T01:02:19.568Z,20.80
2019-06-20T01:04:47.297Z,20.80
2019-06-20T01:07:15.016Z,20.80
2019-06-20T01:09:43.119Z,20.80
2019-06-20T01:12:10.852Z,20.80
2019-06-20T01:14:38.765Z,20.80
2019-06-20T01:17:06.918Z,20.80
2019-06-20T01:19:35.012Z,20.80
2019-06-20T01:22:02.778Z,20.80
2019-06-20T01:24:30.507Z,20.80
2019-06-20T01:26:58.236Z,20.80
2019-06-20T01:29:25.966Z,20.80
2019-06-20T01:31:54.002Z,20.80
2019-06-20T01:34:21.749Z,20.80
2019-06-20T01:36:49.505Z,20.80
2019-06-20T01:39:17.250Z,20.80
2019-06-20T01:41:44.974Z,20.80
2019-06-20T01:44:15.736Z,20.80
2019-06-20T01:46:43.462Z,20.80
2019-06-20T01:49:13.164Z,20.80
2019-06-20T01:51:40.574Z,20.70
2019-06-20T01:54:08.304Z,20.70
2019-06-20T01:56:36.045Z,20.70
2019-06-20T01:59:04.138Z,20.80
2019-06-20T02:01:32.161Z,20.80
2019-06-20T02:03:59.901Z,20.80
2019-06-20T02:06:27.624Z,20.80
2019-06-20T02:08:55.354Z,20.70
2019-06-20T02:11:23.073Z,20.70
2019-06-20T02:14:06.105Z,20.70
2019-06-20T02:16:20.191Z,20.70
2019-06-20T02:18:47.925Z,20.70
2019-06-20T02:21:15.783Z,20.70
2019-06-20T02:23:43.500Z,20.70
2019-06-20T02:26:12.430Z,20.70
2019-06-20T02:28:40.164Z,20.70
2019-06-20T02:31:07.902Z,20.70
2019-06-20T02:33:35.624Z,20.70
2019-06-20T02:36:03.360Z,20.70
2019-06-20T02:38:31.087Z,20.70
2019-06-20T02:40:58.830Z,20.70
2019-06-20T02:43:26.698Z,20.70
2019-06-20T02:45:54.428Z,20.70
2019-06-20T02:48:22.169Z,20.70
2019-06-20T02:50:49.907Z,20.70
2019-06-20T02:53:17.963Z,20.70
2019-06-20T02:55:46.386Z,20.70
2019-06-20T02:58:14.402Z,20.70
2019-06-20T03:00:54.745Z,20.70
2019-06-20T03:03:22.479Z,20.70
2019-06-20T03:05:50.233Z,20.70
2019-06-20T03:08:17.927Z,20.70
2019-06-20T03:10:45.690Z,20.60
2019-06-20T03:13:13.598Z,20.70
2019-06-20T03:15:41.383Z,20.70
2019-06-20T03:18:09.096Z,20.70
2019-06-20T03:20:36.848Z,20.70
2019-06-20T03:23:04.588Z,20.70
2019-06-20T03:25:32.338Z,20.60
2019-06-20T03:28:00.059Z,20.70
2019-06-20T03:30:27.812Z,20.60
2019-06-20T03:32:55.528Z,20.60
2019-06-20T03:35:23.258Z,20.60
2019-06-20T03:37:50.982Z,20.70
2019-06-20T03:40:19.082Z,20.70
2019-06-20T03:42:46.810Z,20.60
2019-06-20T03:45:14.809Z,20.60
2019-06-20T03:47:45.218Z,20.60
2019-06-20T03:50:14.857Z,20.70
2019-06-20T03:52:47.037Z,20.70
2019-06-20T03:55:14.767Z,20.70
2019-06-20T03:57:45.180Z,20.70
2019-06-20T04:00:14.541Z,20.60
2019-06-20T04:02:43.895Z,20.60
2019-06-20T04:05:12.558Z,20.60
2019-06-20T04:07:40.283Z,20.60
2019-06-20T04:10:08.014Z,20.60
2019-06-20T04:12:35.753Z,20.60
2019-06-20T04:15:17.751Z,20.60
2019-06-20T04:17:33.530Z,20.60
2019-06-20T04:20:01.255Z,20.60
2019-06-20T04:22:28.985Z,20.60
2019-06-20T04:24:56.983Z,20.60
2019-06-20T04:27:24.729Z,20.60
2019-06-20T04:29:52.458Z,20.60
2019-06-20T04:32:20.207Z,20.60
2019-06-20T04:34:47.937Z,20.60
2019-06-20T04:37:15.698Z,20.60
2019-06-20T04:39:43.412Z,20.60
2019-06-20T04:42:13.037Z,20.60
2019-06-20T04:44:40.851Z,20.60
2019-06-20T04:47:10.611Z,20.60
2019-06-20T04:49:38.330Z,20.60
2019-06-20T04:52:06.141Z,20.60
2019-06-20T04:54:34.179Z,20.60
2019-06-20T04:57:02.206Z,20.60
2019-06-20T04:59:29.922Z,20.60
2019-06-20T05:01:58.008Z,20.60
2019-06-20T05:04:25.739Z,20.60
2019-06-20T05:06:55.240Z,20.60
2019-06-20T05:09:22.965Z,20.60
2019-06-20T05:11:51.008Z,20.60
2019-06-20T05:14:18.801Z,20.60
2019-06-20T05:16:46.931Z,20.70
2019-06-20T05:19:14.660Z,20.60
2019-06-20T05:21:42.407Z,20.70
2019-06-20T05:24:10.892Z,20.70
2019-06-20T05:26:39.045Z,20.70
2019-06-20T05:29:07.417Z,20.70
2019-06-20T05:31:35.484Z,20.70
2019-06-20T05:34:03.465Z,20.70
2019-06-20T05:36:31.191Z,20.70
2019-06-20T05:38:58.921Z,20.70
2019-06-20T05:41:26.643Z,20.70
2019-06-20T05:43:54.378Z,20.70
2019-06-20T05:46:22.104Z,20.70
2019-06-20T05:48:49.849Z,20.70
2019-06-20T05:51:17.627Z,20.70
2019-06-20T05:53:45.309Z,20.70
2019-06-20T05:56:14.677Z,20.70
2019-06-20T05:58:42.408Z,20.70
2019-06-20T06:01:10.139Z,20.70
2019-06-20T06:03:37.860Z,20.70
2019-06-20T06:06:05.584Z,20.70
2019-06-20T06:08:34.104Z,20.70
2019-06-20T06:11:02.292Z,20.80
2019-06-20T06:13:30.022Z,20.90
2019-06-20T06:15:57.762Z,21.10
2019-06-20T06:18:25.482Z,21.20
2019-06-20T06:20:53.214Z,21.30
2019-06-20T06:23:21.327Z,21.40
2019-06-20T06:25:49.053Z,21.50
2019-06-20T06:28:16.831Z,21.50
2019-06-20T06:30:44.561Z,21.50
2019-06-20T06:33:12.464Z,21.50
2019-06-20T06:35:40.210Z,21.50
2019-06-20T06:38:07.947Z,21.50
2019-06-20T06:40:35.668Z,21.50
2019-06-20T06:43:03.389Z,21.50
2019-06-20T06:45:31.112Z,21.50
2019-06-20T06:47:58.860Z,21.50
2019-06-20T06:50:26.570Z,21.50
2019-06-20T06:52:54.306Z,21.50
2019-06-20T06:55:22.066Z,21.50
2019-06-20T06:57:49.768Z,21.50
2019-06-20T07:00:17.989Z,21.40
2019-06-20T07:02:45.792Z,21.40
2019-06-20T07:05:13.532Z,21.40
2019-06-20T07:07:41.291Z,21.40
2019-06-20T07:10:09.007Z,21.40
2019-06-20T07:12:37.050Z,21.40
2019-06-20T07:15:06.428Z,21.40
2019-06-20T07:17:34.519Z,21.40
2019-06-20T07:20:02.653Z,21.40
2019-06-20T07:22:30.377Z,21.50
2019-06-20T07:24:58.247Z,21.50
2019-06-20T07:27:26.010Z,21.40
2019-06-20T07:29:53.958Z,21.50
2019-06-20T07:32:21.955Z,21.40
2019-06-20T07:34:50.263Z,21.50
2019-06-20T07:37:17.976Z,21.40
2019-06-20T07:39:45.764Z,21.40
2019-06-20T07:42:13.514Z,21.40
2019-06-20T07:44:41.685Z,21.40
2019-06-20T07:47:17.592Z,21.40
2019-06-20T07:49:38.819Z,21.40
2019-06-20T07:52:06.860Z,21.40
2019-06-20T07:54:34.598Z,21.40
2019-06-20T07:57:02.358Z,21.40
2019-06-20T07:59:30.171Z,21.40
2019-06-20T08:01:57.884Z,21.40
2019-06-20T08:04:25.991Z,21.40
2019-06-20T08:06:53.782Z,21.40
2019-06-20T08:09:22.218Z,21.40
2019-06-20T08:11:50.040Z,21.40
2019-06-20T08:14:17.772Z,21.40
2019-06-20T08:16:45.494Z,21.40
2019-06-20T08:19:16.121Z,21.40
2019-06-20T08:21:44.252Z,21.40
2019-06-20T08:24:13.803Z,21.40
2019-06-20T08:26:44.146Z,21.40
2019-06-20T08:29:20.667Z,21.40
2019-06-20T08:31:44.321Z,21.40
2019-06-20T08:34:14.215Z,21.40
2019-06-20T08:36:42.315Z,21.40
2019-06-20T08:39:10.232Z,21.40
2019-06-20T08:41:38.216Z,21.40
2019-06-20T08:44:06.235Z,21.30
2019-06-20T08:46:34.521Z,21.30
2019-06-20T08:49:03.530Z,21.30
2019-06-20T08:51:31.401Z,21.30
2019-06-20T08:53:59.282Z,21.30
2019-06-20T08:56:27.120Z,21.30
2019-06-20T08:58:55.751Z,21.30
2019-06-20T09:01:24.282Z,21.30
2019-06-20T09:03:53.970Z,21.30
2019-06-20T09:06:21.794Z,21.30
2019-06-20T09:08:50.111Z,21.30
2019-06-20T09:11:17.833Z,21.30
2019-06-20T09:13:46.202Z,21.30
2019-06-20T09:16:24.265Z,21.30
2019-06-20T09:18:43.668Z,21.30
2019-06-20T09:21:12.347Z,21.30
2019-06-20T09:23:40.134Z,21.30
2019-06-20T09:26:08.025Z,21.30
2019-06-20T09:28:35.923Z,21.20
2019-06-20T09:31:04.100Z,21.20
2019-06-20T09:33:32.010Z,21.20
2019-06-20T09:35:59.800Z,21.20
2019-06-20T09:38:27.696Z,21.20
2019-06-20T09:40:55.423Z,21.20
2019-06-20T09:43:27.472Z,21.20
2019-06-20T09:45:53.156Z,21.20
2019-06-20T09:48:22.124Z,21.20
2019-06-20T09:50:51.625Z,21.20
2019-06-20T09:53:19.350Z,21.20
2019-06-20T09:55:48.451Z,21.20
2019-06-20T09:58:16.894Z,21.20
2019-06-20T10:00:44.632Z,21.20
2019-06-20T10:03:13.982Z,21.20
2019-06-20T10:05:47.137Z,21.20
2019-06-20T10:08:14.219Z,21.20
2019-06-20T10:10:45.471Z,21.20
2019-06-20T10:13:14.478Z,21.10
2019-06-20T10:15:44.908Z,21.10
2019-06-20T10:18:16.265Z,21.10
2019-06-20T10:20:44.379Z,21.10
2019-06-20T10:23:13.693Z,21.10
2019-06-20T10:25:41.863Z,21.10
2019-06-20T10:28:09.737Z,21.10
2019-06-20T10:30:37.644Z,21.10
2019-06-20T10:33:05.547Z,21.10
2019-06-20T10:35:33.325Z,21.10
2019-06-20T10:38:01.231Z,21.10
2019-06-20T10:40:29.022Z,21.10
2019-06-20T10:42:57.041Z,21.10
2019-06-20T10:45:25.296Z,21.10
2019-06-20T10:47:53.657Z,21.10
2019-06-20T10:50:21.531Z,21.00
2019-06-20T10:52:50.023Z,21.00
2019-06-20T10:55:17.950Z,21.00
2019-06-20T10:57:46.769Z,21.00
2019-06-20T11:00:29.791Z,21.00
2019-06-20T11:02:44.976Z,21.00
2019-06-20T11:05:14.443Z,21.00
2019-06-20T11:07:43.912Z,21.00
2019-06-20T11:10:14.591Z,21.00
2019-06-20T11:12:47.865Z,21.00
2019-06-20T11:15:14.444Z,21.00
2019-06-20T11:17:44.166Z,21.00
2019-06-20T11:20:13.764Z,21.00
2019-06-20T11:22:45.288Z,21.00
2019-06-20T11:25:13.342Z,21.00
2019-06-20T11:27:43.238Z,21.00
2019-06-20T11:30:15.491Z,21.00
2019-06-20T11:32:46.092Z,21.00
2019-06-20T11:35:14.113Z,21.00
2019-06-20T11:37:43.006Z,21.00
2019-06-20T11:40:10.702Z,21.00
2019-06-20T11:42:39.843Z,21.00
2019-06-20T11:45:07.794Z,21.00
2019-06-20T11:47:36.618Z,21.00
2019-06-20T11:50:06.240Z,21.00
2019-06-20T11:52:38.817Z,20.90
2019-06-20T11:55:05.063Z,21.00
2019-06-20T11:57:32.888Z,20.90
2019-06-20T12:00:00.679Z,20.90
2019-06-20T12:02:28.392Z,20.90
2019-06-20T12:04:56.175Z,21.00
2019-06-20T12:07:23.896Z,21.00
2019-06-20T12:09:51.914Z,21.00
2019-06-20T12:12:19.631Z,21.00
2019-06-20T12:14:48.523Z,21.00
2019-06-20T12:17:16.414Z,21.00
2019-06-20T12:19:44.610Z,21.00
2019-06-20T12:22:12.382Z,21.00
2019-06-20T12:24:41.671Z,21.00
2019-06-20T12:27:09.610Z,20.90
2019-06-20T12:29:37.751Z,20.90
2019-06-20T12:32:09.904Z,20.90
2019-06-20T12:34:38.830Z,20.90
2019-06-20T12:37:05.712Z,21.00
2019-06-20T12:39:33.747Z,21.00
2019-06-20T12:42:01.473Z,20.90
2019-06-20T12:44:29.392Z,20.90
2019-06-20T12:46:57.186Z,20.90
2019-06-20T12:49:25.395Z,20.90
2019-06-20T12:51:53.494Z,20.90
2019-06-20T12:54:21.225Z,20.90
2019-06-20T12:56:49.073Z,20.90
2019-06-20T12:59:16.803Z,20.90
2019-06-20T13:01:47.754Z,20.90
2019-06-20T13:04:14.101Z,20.90
2019-06-20T13:06:44.856Z,20.90
2019-06-20T13:09:15.533Z,20.90
2019-06-20T13:11:47.014Z,20.90
2019-06-20T13:14:15.010Z,20.90
2019-06-20T13:16:46.043Z,20.90
2019-06-20T13:19:14.198Z,20.90
2019-06-20T13:21:44.752Z,20.90
2019-06-20T13:24:12.870Z,20.90
2019-06-20T13:26:41.102Z,20.90
2019-06-20T13:29:10.141Z,20.90
2019-06-20T13:31:56.471Z,20.90
2019-06-20T13:34:07.383Z,20.90
2019-06-20T13:36:35.186Z,20.90
2019-06-20T13:39:04.873Z,20.90
2019-06-20T13:41:32.712Z,20.90
2019-06-20T13:44:01.044Z,20.90
2019-06-20T13:46:28.831Z,20.90
2019-06-20T13:48:56.562Z,20.90
2019-06-20T13:51:24.289Z,20.90
2019-06-20T13:53:52.143Z,20.90
2019-06-20T13:56:19.874Z,20.90
2019-06-20T13:58:48.845Z,20.90
2019-06-20T14:01:16.953Z,20.90
2019-06-20T14:03:45.702Z,20.90
2019-06-20T14:06:14.121Z,20.90
2019-06-20T14:08:46.030Z,20.90
2019-06-20T14:11:14.105Z,20.90
2019-06-20T14:13:49.283Z,20.90
2019-06-20T14:16:14.386Z,20.90
2019-06-20T14:18:44.518Z,20.90
2019-06-20T14:21:16.075Z,20.90
2019-06-20T14:23:44.700Z,20.90
2019-06-20T14:26:16.023Z,20.90
2019-06-20T14:28:44.326Z,20.80
2019-06-20T14:31:12.361Z,20.80
2019-06-20T14:33:40.146Z,20.90
2019-06-20T14:36:08.037Z,20.90
2019-06-20T14:38:36.138Z,20.90
2019-06-20T14:41:03.930Z,20.90
2019-06-20T14:43:31.732Z,20.90
2019-06-20T14:45:59.509Z,20.90
2019-06-20T14:48:27.299Z,20.90
2019-06-20T14:50:55.509Z,20.90
2019-06-20T14:53:23.345Z,20.90
2019-06-20T14:55:51.727Z,20.90
2019-06-20T14:58:19.600Z,20.90
2019-06-20T15:00:48.172Z,20.80
2019-06-20T15:03:15.964Z,20.80
2019-06-20T15:05:44.780Z,20.90
2019-06-20T15:08:14.587Z,20.80
2019-06-20T15:10:42.317Z,20.90
2019-06-20T15:13:10.038Z,20.80
2019-06-20T15:15:37.879Z,20.80
2019-06-20T15:18:05.884Z,20.90
2019-06-20T15:20:33.650Z,20.90
2019-06-20T15:23:01.370Z,20.90
2019-06-20T15:25:29.123Z,21.10
2019-06-20T15:27:57.369Z,21.20
2019-06-20T15:30:25.175Z,21.40
2019-06-20T15:33:04.348Z,21.50
2019-06-20T15:35:22.503Z,21.50
2019-06-20T15:37:51.517Z,21.50
2019-06-20T15:40:19.745Z,21.50
2019-06-20T15:42:49.580Z,21.50
2019-06-20T15:45:17.368Z,21.50
2019-06-20T15:47:45.167Z,21.50
2019-06-20T15:50:14.706Z,21.50
2019-06-20T15:52:42.698Z,21.50
2019-06-20T15:55:13.602Z,21.50
2019-06-20T15:57:41.314Z,21.50
2019-06-20T16:00:09.907Z,21.40
2019-06-20T16:02:37.648Z,21.40
2019-06-20T16:05:06.454Z,21.40
2019-06-20T16:07:34.177Z,21.40
2019-06-20T16:10:02.131Z,21.50
2019-06-20T16:12:29.935Z,21.50
2019-06-20T16:14:57.738Z,21.50
2019-06-20T16:17:25.474Z,21.50
2019-06-20T16:19:53.427Z,21.40
2019-06-20T16:22:21.218Z,21.40
2019-06-20T16:24:48.947Z,21.40
2019-06-20T16:27:16.711Z,21.50
2019-06-20T16:29:44.428Z,21.50
2019-06-20T16:32:14.278Z,21.50
2019-06-20T16:34:42.178Z,21.40
2019-06-20T16:37:10.712Z,21.40
2019-06-20T16:39:38.717Z,21.40
2019-06-20T16:42:06.615Z,21.40
2019-06-20T16:44:34.398Z,21.40
2019-06-20T16:47:02.629Z,21.40
2019-06-20T16:49:30.411Z,21.40
2019-06-20T16:51:58.353Z,21.40
2019-06-20T16:54:26.121Z,21.40
2019-06-20T16:56:54.144Z,21.40
2019-06-20T16:59:22.202Z,21.40
2019-06-20T17:01:50.150Z,21.40
2019-06-20T17:04:17.944Z,21.40
2019-06-20T17:06:46.144Z,21.40
2019-06-20T17:09:13.938Z,21.40
2019-06-20T17:11:44.707Z,21.40
2019-06-20T17:14:12.740Z,21.40
2019-06-20T17:16:40.523Z,21.40
2019-06-20T17:19:08.626Z,21.40
2019-06-20T17:21:36.577Z,21.40
2019-06-20T17:24:04.694Z,21.40
2019-06-20T17:26:32.583Z,21.40
2019-06-20T17:29:00.695Z,21.40
2019-06-20T17:31:28.485Z,21.40
2019-06-20T17:33:57.862Z,21.40
2019-06-20T17:36:25.838Z,21.30
2019-06-20T17:38:53.648Z,21.30
2019-06-20T17:41:21.449Z,21.30
2019-06-20T17:43:49.376Z,21.30
2019-06-20T17:46:17.166Z,21.30
2019-06-20T17:48:44.962Z,21.30
2019-06-20T17:51:15.308Z,21.30
2019-06-20T17:53:45.045Z,21.30
2019-06-20T17:56:13.393Z,21.20
2019-06-20T17:58:42.399Z,21.30
2019-06-20T18:01:10.153Z,21.30
2019-06-20T18:03:37.878Z,21.30
2019-06-20T18:06:05.677Z,21.30
2019-06-20T18:08:33.598Z,21.30
2019-06-20T18:11:01.711Z,21.30
2019-06-20T18:13:29.457Z,21.30
2019-06-20T18:15:57.268Z,21.20
2019-06-20T18:18:25.301Z,21.20
2019-06-20T18:20:53.098Z,21.20
2019-06-20T18:23:20.992Z,21.20
2019-06-20T18:25:48.783Z,21.20
2019-06-20T18:28:16.729Z,21.20
2019-06-20T18:30:44.845Z,21.20
2019-06-20T18:33:15.653Z,21.10
2019-06-20T18:35:43.376Z,21.10
2019-06-20T18:38:11.687Z,21.10
2019-06-20T18:40:39.486Z,21.10
2019-06-20T18:43:07.226Z,21.10
2019-06-20T18:45:34.987Z,21.10
2019-06-20T18:48:02.912Z,21.10
2019-06-20T18:50:30.819Z,21.10
2019-06-20T18:52:58.642Z,21.10
2019-06-20T18:55:26.495Z,21.10
2019-06-20T18:57:54.317Z,21.10
2019-06-20T19:00:34.295Z,21.10
2019-06-20T19:02:51.633Z,21.10
2019-06-20T19:05:19.438Z,21.10
2019-06-20T19:07:47.656Z,21.00
2019-06-20T19:10:15.651Z,21.00
2019-06-20T19:12:43.959Z,21.00
2019-06-20T19:15:12.929Z,21.00
2019-06-20T19:17:40.655Z,21.00
2019-06-20T19:20:09.409Z,21.00
2019-06-20T19:22:37.185Z,21.00
2019-06-20T19:25:06.042Z,21.00
2019-06-20T19:27:45.798Z,21.00
2019-06-20T19:30:04.919Z,21.00
2019-06-20T19:32:32.711Z,21.00
2019-06-20T19:35:02.434Z,21.00
2019-06-20T19:37:30.493Z,21.00
2019-06-20T19:39:58.387Z,21.00
2019-06-20T19:42:26.625Z,21.00
2019-06-20T19:44:54.423Z,21.00
2019-06-20T19:47:22.349Z,21.00
2019-06-20T19:49:50.560Z,21.00
2019-06-20T19:52:18.468Z,21.00
2019-06-20T19:54:48.277Z,21.00
2019-06-20T19:57:15.787Z,21.00
2019-06-20T19:59:46.130Z,21.00
2019-06-20T20:02:14.682Z,21.00
2019-06-20T20:04:42.691Z,21.00
2019-06-20T20:07:10.491Z,21.00
2019-06-20T20:09:38.414Z,21.00
2019-06-20T20:12:06.835Z,21.00
2019-06-20T20:14:34.573Z,21.00
2019-06-20T20:17:02.296Z,21.00
2019-06-20T20:19:30.056Z,21.00
2019-06-20T20:21:57.846Z,21.00
2019-06-20T20:24:25.570Z,21.00
2019-06-20T20:26:53.442Z,21.00
2019-06-20T20:29:21.380Z,21.00
2019-06-20T20:31:49.327Z,21.00
2019-06-20T20:34:17.116Z,21.00
2019-06-20T20:36:44.841Z,21.00
2019-06-20T20:39:17.029Z,21.00
2019-06-20T20:41:44.985Z,21.00
2019-06-20T20:44:12.738Z,21.00
2019-06-20T20:46:40.567Z,21.00
2019-06-20T20:49:08.356Z,21.00
2019-06-20T20:51:36.181Z,21.00
2019-06-20T20:54:03.962Z,21.00
2019-06-20T20:56:31.860Z,21.00
2019-06-20T20:58:59.636Z,21.00
2019-06-20T21:01:28.585Z,21.00
2019-06-20T21:03:56.388Z,21.00
2019-06-20T21:06:24.291Z,21.00
2019-06-20T21:08:52.012Z,21.00
2019-06-20T21:11:19.774Z,21.00
2019-06-20T21:13:47.608Z,21.00
2019-06-20T21:16:15.738Z,21.00
2019-06-20T21:18:43.541Z,21.00
2019-06-20T21:21:11.988Z,21.00
2019-06-20T21:23:39.668Z,21.00
2019-06-20T21:26:07.419Z,21.00
2019-06-20T21:28:35.298Z,21.00
2019-06-20T21:31:03.427Z,21.00
2019-06-20T21:33:31.332Z,21.00
2019-06-20T21:36:08.390Z,21.00
2019-06-20T21:38:28.863Z,21.00
2019-06-20T21:40:56.754Z,21.00
2019-06-20T21:43:24.847Z,21.00
2019-06-20T21:45:53.053Z,21.00
2019-06-20T21:48:21.352Z,21.00
2019-06-20T21:50:49.140Z,21.00
2019-06-20T21:53:17.034Z,21.00
2019-06-20T21:55:44.812Z,21.00
2019-06-20T21:58:15.903Z,21.00
2019-06-20T22:00:47.355Z,21.00
2019-06-20T22:03:15.093Z,21.00
2019-06-20T22:05:42.914Z,21.00
2019-06-20T22:08:10.759Z,21.00
2019-06-20T22:10:38.559Z,21.00
2019-06-20T22:13:06.295Z,21.00
2019-06-20T22:15:34.032Z,21.00
2019-06-20T22:18:01.779Z,20.90
2019-06-20T22:20:29.649Z,21.00
2019-06-20T22:22:57.547Z,21.00
2019-06-20T22:25:25.655Z,21.00
2019-06-20T22:27:53.405Z,21.00
2019-06-20T22:30:39.370Z,21.00
2019-06-20T22:33:07.468Z,21.00
2019-06-20T22:35:35.197Z,20.90
2019-06-20T22:38:03.060Z,20.90
2019-06-20T22:40:30.855Z,20.90
2019-06-20T22:42:58.758Z,20.90
2019-06-20T22:45:26.474Z,20.90
2019-06-20T22:47:54.199Z,20.90
2019-06-20T22:50:22.442Z,20.90
2019-06-20T22:52:50.238Z,20.90
2019-06-20T22:55:17.947Z,20.90
2019-06-20T22:57:45.690Z,20.90
2019-06-20T23:00:13.769Z,20.90
2019-06-20T23:02:43.911Z,20.90
2019-06-20T23:05:14.529Z,20.90
2019-06-20T23:07:44.031Z,20.90
2019-06-20T23:10:14.791Z,20.90
2019-06-20T23:12:45.176Z,20.90
2019-06-20T23:15:14.605Z,20.90
2019-06-20T23:17:42.407Z,20.90
2019-06-20T23:20:10.300Z,20.90
2019-06-20T23:22:38.120Z,20.90
2019-06-20T23:25:08.686Z,20.90
2019-06-20T23:27:36.580Z,20.90
2019-06-20T23:30:07.750Z,20.90
2019-06-20T23:32:35.493Z,20.90
2019-06-20T23:35:03.687Z,20.90
2019-06-20T23:43:23.827Z,20.90
2019-06-20T23:45:51.621Z,20.80
2019-06-20T23:48:19.744Z,20.90
2019-06-20T23:50:47.520Z,20.90
2019-06-20T23:53:19.524Z,20.90
2019-06-20T23:55:47.624Z,20.90
2019-06-20T23:58:15.365Z,20.90
